createdAt,value
2022-08-19T00:01:28.717Z,22.00
2022-08-19T00:03:59.201Z,22.10
2022-08-19T00:06:28.055Z,22.10
2022-08-19T00:08:56.392Z,22.20
2022-08-19T00:11:25.354Z,22.20
2022-08-19T00:13:53.719Z,22.20
2022-08-19T00:16:26.083Z,22.20
2022-08-19T00:18:56.431Z,22.10
2022-08-19T00:21:25.305Z,22.10
2022-08-19T00:23:53.813Z,22.00
2022-08-19T00:26:21.261Z,22.00
2022-08-19T00:28:48.246Z,21.90
2022-08-19T00:31:17.177Z,21.90
2022-08-19T00:33:44.708Z,21.80
2022-08-19T00:36:12.724Z,21.90
2022-08-19T00:38:44.229Z,21.90
2022-08-19T00:41:15.625Z,21.90
2022-08-19T00:43:42.890Z,21.90
2022-08-19T00:46:10.568Z,21.90
2022-08-19T00:48:37.914Z,21.90
2022-08-19T00:51:06.540Z,21.90
2022-08-19T00:53:35.116Z,21.90
2022-08-19T00:56:06.711Z,21.90
2022-08-19T00:58:35.152Z,21.80
2022-08-19T01:01:04.002Z,21.80
2022-08-19T01:03:56.521Z,21.80
2022-08-19T01:06:20.074Z,21.70
2022-08-19T01:08:50.076Z,21.70
2022-08-19T01:11:17.690Z,21.60
2022-08-19T01:13:49.969Z,21.70
2022-08-19T01:16:20.970Z,21.70
2022-08-19T01:18:48.884Z,21.70
2022-08-19T01:21:43.153Z,21.70
2022-08-19T01:24:10.401Z,21.70
2022-08-19T01:26:42.756Z,21.70
2022-08-19T01:29:11.691Z,21.70
2022-08-19T01:31:40.145Z,21.70
2022-08-19T01:34:08.133Z,21.60
2022-08-19T01:36:46.592Z,21.60
2022-08-19T01:39:18.490Z,21.60
2022-08-19T01:41:49.018Z,21.50
2022-08-19T01:44:19.267Z,21.50
2022-08-19T01:46:49.520Z,21.40
2022-08-19T01:49:21.058Z,21.40
2022-08-19T01:51:50.346Z,21.40
2022-08-19T01:54:23.418Z,21.50
2022-08-19T01:57:12.187Z,21.40
2022-08-19T01:59:40.577Z,21.40
2022-08-19T02:02:10.515Z,21.50
2022-08-19T02:04:40.931Z,21.40
2022-08-19T02:07:09.090Z,21.40
2022-08-19T02:09:36.831Z,21.40
2022-08-19T02:12:05.499Z,21.50
2022-08-19T02:14:35.267Z,21.40
2022-08-19T02:17:02.515Z,21.40
2022-08-19T02:19:29.639Z,21.40
2022-08-19T02:21:56.905Z,21.40
2022-08-19T02:24:24.371Z,21.40
2022-08-19T02:26:54.431Z,21.40
2022-08-19T02:29:21.714Z,21.30
2022-08-19T02:31:49.126Z,21.30
2022-08-19T02:34:16.735Z,21.30
2022-08-19T02:36:43.992Z,21.20
2022-08-19T02:39:19.444Z,21.30
2022-08-19T02:41:46.717Z,21.20
2022-08-19T02:44:28.839Z,21.20
2022-08-19T02:46:58.661Z,21.10
2022-08-19T02:49:25.767Z,21.20
2022-08-19T02:51:52.833Z,21.10
2022-08-19T02:54:20.172Z,21.10
2022-08-19T02:56:47.562Z,21.00
2022-08-19T02:59:14.738Z,21.00
2022-08-19T03:01:43.403Z,21.10
2022-08-19T03:04:16.581Z,21.00
2022-08-19T03:06:46.533Z,21.10
2022-08-19T03:09:14.267Z,21.00
2022-08-19T03:11:41.599Z,21.00
2022-08-19T03:14:10.592Z,20.90
2022-08-19T03:16:46.800Z,20.90
2022-08-19T03:19:16.540Z,20.90
2022-08-19T03:21:48.226Z,20.90
2022-08-19T03:24:16.389Z,20.90
2022-08-19T03:26:46.337Z,20.90
2022-08-19T03:29:14.119Z,21.00
2022-08-19T03:31:52.424Z,21.00
2022-08-19T03:34:29.659Z,21.00
2022-08-19T03:36:59.234Z,21.10
2022-08-19T03:39:27.189Z,21.10
2022-08-19T03:42:30.110Z,21.30
2022-08-19T03:44:46.084Z,21.20
2022-08-19T03:47:17.644Z,21.30
2022-08-19T03:49:45.639Z,21.40
2022-08-19T03:52:13.013Z,21.40
2022-08-19T03:54:40.343Z,21.50
2022-08-19T03:57:08.226Z,21.60
2022-08-19T03:59:38.641Z,21.70
2022-08-19T04:02:11.970Z,21.80
2022-08-19T04:04:41.471Z,21.90
2022-08-19T04:07:10.402Z,22.00
2022-08-19T04:09:38.025Z,22.20
2022-08-19T04:12:06.543Z,22.30
2022-08-19T04:14:34.786Z,22.40
2022-08-19T04:17:05.685Z,22.50
2022-08-19T04:19:38.002Z,22.70
2022-08-19T04:22:06.177Z,23.40
2022-08-19T04:24:36.567Z,24.40
2022-08-19T04:27:05.084Z,25.20
2022-08-19T04:29:32.548Z,26.00
2022-08-19T04:32:09.084Z,26.70
2022-08-19T04:35:02.258Z,27.60
2022-08-19T04:37:27.466Z,28.50
2022-08-19T04:40:21.061Z,29.50
2022-08-19T04:42:48.168Z,30.00
2022-08-19T04:45:15.846Z,31.10
2022-08-19T04:47:49.212Z,31.40
2022-08-19T04:50:27.328Z,31.90
2022-08-19T04:52:57.202Z,31.40
2022-08-19T04:55:26.726Z,30.90
2022-08-19T04:57:55.251Z,30.50
2022-08-19T05:00:22.443Z,30.00
2022-08-19T05:02:50.230Z,29.90
2022-08-19T05:05:18.189Z,29.50
2022-08-19T05:07:45.309Z,29.20
2022-08-19T05:10:13.327Z,29.00
2022-08-19T05:12:40.598Z,29.10
2022-08-19T05:15:09.721Z,29.60
2022-08-19T05:17:38.971Z,30.30
2022-08-19T05:20:26.459Z,30.90
2022-08-19T05:22:53.789Z,31.30
2022-08-19T05:25:22.623Z,31.80
2022-08-19T05:27:51.417Z,32.30
2022-08-19T05:30:18.601Z,33.00
2022-08-19T05:32:51.832Z,33.60
2022-08-19T05:35:21.572Z,34.40
2022-08-19T05:37:49.140Z,34.40
2022-08-19T05:40:22.582Z,34.40
2022-08-19T05:42:55.391Z,34.60
2022-08-19T05:45:22.891Z,34.70
2022-08-19T05:47:50.129Z,34.60
2022-08-19T05:50:18.538Z,35.00
2022-08-19T05:52:50.255Z,35.70
2022-08-19T05:55:21.259Z,36.60
2022-08-19T05:57:48.335Z,36.60
2022-08-19T06:00:15.684Z,37.30
2022-08-19T06:02:43.100Z,38.10
2022-08-19T06:05:10.827Z,38.30
2022-08-19T06:07:39.692Z,37.40
2022-08-19T06:10:10.679Z,36.80
2022-08-19T06:12:38.405Z,37.10
2022-08-19T06:15:12.120Z,37.70
2022-08-19T06:17:39.753Z,38.50
2022-08-19T06:20:13.076Z,39.30
2022-08-19T06:22:41.269Z,40.10
2022-08-19T06:25:10.244Z,40.50
2022-08-19T06:27:48.332Z,40.50
2022-08-19T06:30:26.269Z,41.40
2022-08-19T06:32:54.568Z,41.90
2022-08-19T06:35:21.751Z,41.50
2022-08-19T06:37:49.069Z,41.60
2022-08-19T06:40:16.273Z,42.00
2022-08-19T06:42:54.223Z,42.10
2022-08-19T06:45:24.903Z,42.00
2022-08-19T06:47:56.875Z,39.90
2022-08-19T06:50:24.959Z,39.50
2022-08-19T06:52:52.380Z,39.40
2022-08-19T06:55:20.704Z,39.40
2022-08-19T06:57:49.264Z,39.50
2022-08-19T07:00:16.934Z,39.70
2022-08-19T07:02:49.587Z,39.70
2022-08-19T07:05:20.553Z,39.70
2022-08-19T07:07:47.819Z,39.60
2022-08-19T07:10:15.032Z,38.10
2022-08-19T07:12:42.714Z,36.50
2022-08-19T07:15:11.832Z,35.60
2022-08-19T07:17:39.677Z,34.80
2022-08-19T07:20:09.612Z,34.20
2022-08-19T07:22:38.953Z,33.60
2022-08-19T07:25:09.598Z,32.90
2022-08-19T07:27:38.139Z,32.50
2022-08-19T07:30:11.602Z,32.30
2022-08-19T07:32:40.370Z,32.30
2022-08-19T07:35:10.467Z,32.30
2022-08-19T07:37:38.281Z,32.30
2022-08-19T07:40:08.672Z,32.30
2022-08-19T07:42:35.803Z,32.00
2022-08-19T07:45:03.521Z,32.20
2022-08-19T07:47:49.207Z,32.20
2022-08-19T07:50:22.369Z,32.20
2022-08-19T07:52:50.747Z,32.10
2022-08-19T07:55:41.132Z,32.10
2022-08-19T07:58:09.449Z,32.40
2022-08-19T08:00:37.015Z,32.20
2022-08-19T08:03:04.847Z,31.70
2022-08-19T08:05:50.892Z,31.30
2022-08-19T08:08:47.911Z,31.30
2022-08-19T08:11:22.105Z,31.10
2022-08-19T08:14:00.391Z,31.00
2022-08-19T08:16:31.048Z,30.70
2022-08-19T08:18:58.985Z,30.70
2022-08-19T08:21:26.342Z,30.80
2022-08-19T08:23:56.500Z,30.90
2022-08-19T08:26:24.654Z,31.00
2022-08-19T08:28:53.340Z,31.10
2022-08-19T08:31:21.315Z,31.40
2022-08-19T08:33:48.778Z,31.40
2022-08-19T08:36:20.321Z,31.40
2022-08-19T08:38:48.212Z,31.30
2022-08-19T08:41:20.341Z,30.90
2022-08-19T08:43:52.132Z,30.90
2022-08-19T08:46:52.703Z,30.70
2022-08-19T08:49:33.770Z,30.70
2022-08-19T08:52:21.154Z,30.50
2022-08-19T08:54:55.302Z,30.50
2022-08-19T08:57:41.022Z,30.60
2022-08-19T09:00:18.554Z,30.80
2022-08-19T09:02:50.537Z,30.70
2022-08-19T09:05:22.626Z,30.60
2022-08-19T09:07:53.700Z,30.50
2022-08-19T09:10:45.824Z,30.40
2022-08-19T09:13:37.919Z,30.50
2022-08-19T09:16:19.403Z,30.60
2022-08-19T09:18:53.918Z,30.70
2022-08-19T09:21:26.002Z,30.80
2022-08-19T09:23:59.530Z,30.70
2022-08-19T09:26:47.637Z,30.70
2022-08-19T09:29:15.257Z,30.70
2022-08-19T09:31:42.422Z,30.80
2022-08-19T09:34:21.445Z,31.00
2022-08-19T09:36:54.648Z,31.00
2022-08-19T09:39:22.567Z,31.00
2022-08-19T09:41:51.095Z,31.00
2022-08-19T09:44:21.294Z,31.10
2022-08-19T09:46:49.161Z,30.90
2022-08-19T09:49:22.830Z,30.90
2022-08-19T09:51:56.958Z,30.90
2022-08-19T09:54:25.233Z,30.70
2022-08-19T09:56:54.724Z,30.60
2022-08-19T09:59:22.524Z,30.60
2022-08-19T10:01:49.636Z,30.60
2022-08-19T10:04:20.024Z,30.60
2022-08-19T10:06:53.539Z,30.70
2022-08-19T10:09:26.161Z,30.70
2022-08-19T10:12:02.699Z,30.80
2022-08-19T10:14:30.942Z,30.80
2022-08-19T10:16:59.281Z,30.90
2022-08-19T10:19:36.710Z,31.00
2022-08-19T10:22:10.103Z,31.10
2022-08-19T10:24:39.499Z,31.20
2022-08-19T10:27:10.596Z,31.00
2022-08-19T10:29:38.166Z,31.00
2022-08-19T10:32:14.291Z,31.10
2022-08-19T10:34:48.171Z,31.10
2022-08-19T10:37:23.451Z,31.20
2022-08-19T10:39:51.559Z,31.10
2022-08-19T10:42:19.945Z,30.90
2022-08-19T10:44:47.773Z,30.90
2022-08-19T10:47:24.459Z,30.70
2022-08-19T10:50:12.924Z,30.70
2022-08-19T10:52:49.689Z,30.80
2022-08-19T10:55:42.885Z,30.80
2022-08-19T10:58:15.714Z,30.80
2022-08-19T11:00:46.420Z,30.80
2022-08-19T11:03:13.723Z,30.90
2022-08-19T11:05:42.216Z,30.70
2022-08-19T11:08:23.503Z,30.70
2022-08-19T11:10:59.021Z,30.70
2022-08-19T11:13:26.524Z,30.70
2022-08-19T11:16:08.227Z,30.80
2022-08-19T11:18:39.462Z,30.90
2022-08-19T11:21:09.266Z,30.90
2022-08-19T11:23:36.553Z,31.10
2022-08-19T11:26:04.523Z,31.30
2022-08-19T11:28:32.010Z,31.60
2022-08-19T11:30:59.349Z,31.80
2022-08-19T11:33:27.387Z,31.70
2022-08-19T11:35:55.343Z,31.50
2022-08-19T11:38:22.653Z,31.60
2022-08-19T11:40:58.389Z,31.70
2022-08-19T11:43:27.530Z,31.60
2022-08-19T11:45:56.498Z,31.50
2022-08-19T11:48:25.402Z,31.40
2022-08-19T11:50:56.372Z,31.30
2022-08-19T11:53:24.512Z,31.30
2022-08-19T11:55:56.883Z,31.50
2022-08-19T11:58:25.837Z,31.70
2022-08-19T12:00:53.558Z,31.70
2022-08-19T12:03:20.840Z,31.80
2022-08-19T12:05:48.619Z,32.00
2022-08-19T12:08:16.593Z,32.10
2022-08-19T12:10:43.938Z,32.20
2022-08-19T12:13:12.141Z,32.00
2022-08-19T12:15:41.887Z,31.90
2022-08-19T12:18:10.636Z,31.80
2022-08-19T12:20:40.595Z,31.70
2022-08-19T12:23:10.518Z,31.50
2022-08-19T12:25:44.722Z,31.50
2022-08-19T12:28:14.755Z,31.30
2022-08-19T12:30:41.923Z,31.40
2022-08-19T12:33:09.451Z,31.30
2022-08-19T12:35:42.941Z,31.30
2022-08-19T12:38:12.711Z,31.30
2022-08-19T12:40:43.156Z,31.30
2022-08-19T12:43:10.561Z,31.30
2022-08-19T12:45:38.594Z,31.30
2022-08-19T12:48:32.957Z,31.20
2022-08-19T12:50:55.226Z,31.10
2022-08-19T12:53:22.506Z,31.30
2022-08-19T12:55:56.864Z,31.60
2022-08-19T12:58:27.352Z,31.80
2022-08-19T13:00:54.871Z,31.90
2022-08-19T13:03:25.207Z,31.90
2022-08-19T13:05:54.884Z,32.10
2022-08-19T13:08:22.039Z,32.00
2022-08-19T13:10:51.823Z,32.00
2022-08-19T13:13:19.097Z,32.10
2022-08-19T13:15:46.707Z,31.90
2022-08-19T13:18:14.039Z,31.60
2022-08-19T13:20:41.944Z,31.50
2022-08-19T13:23:13.873Z,31.50
2022-08-19T13:25:41.031Z,31.60
2022-08-19T13:28:08.882Z,31.60
2022-08-19T13:30:58.654Z,31.70
2022-08-19T13:33:27.802Z,31.60
2022-08-19T13:36:01.557Z,31.70
2022-08-19T13:38:29.560Z,31.60
2022-08-19T13:40:56.780Z,31.50
2022-08-19T13:43:27.371Z,31.50
2022-08-19T13:45:58.685Z,31.50
2022-08-19T13:48:28.007Z,31.50
2022-08-19T13:50:55.907Z,31.60
2022-08-19T13:53:23.044Z,31.70
2022-08-19T13:55:51.449Z,31.60
2022-08-19T13:58:19.131Z,31.60
2022-08-19T14:00:47.261Z,31.50
2022-08-19T14:03:14.776Z,31.50
2022-08-19T14:05:42.227Z,31.50
2022-08-19T14:08:10.265Z,31.50
2022-08-19T14:10:37.345Z,31.30
2022-08-19T14:13:05.531Z,31.30
2022-08-19T14:15:33.263Z,31.20
2022-08-19T14:18:00.618Z,31.20
2022-08-19T14:20:28.107Z,31.20
2022-08-19T14:22:56.467Z,31.20
2022-08-19T14:25:27.955Z,31.20
2022-08-19T14:27:55.925Z,31.20
2022-08-19T14:30:29.233Z,31.30
2022-08-19T14:32:59.237Z,31.40
2022-08-19T14:35:28.144Z,31.50
2022-08-19T14:37:56.499Z,31.50
2022-08-19T14:40:28.111Z,31.50
2022-08-19T14:43:00.138Z,31.50
2022-08-19T14:45:29.362Z,31.60
2022-08-19T14:47:56.676Z,31.60
2022-08-19T14:50:24.004Z,31.60
2022-08-19T14:52:58.383Z,31.60
2022-08-19T14:55:27.472Z,31.50
2022-08-19T14:57:54.975Z,31.40
2022-08-19T15:00:25.848Z,31.30
2022-08-19T15:02:54.701Z,31.20
2022-08-19T15:05:22.240Z,31.30
2022-08-19T15:07:50.212Z,31.20
2022-08-19T15:10:17.800Z,31.20
2022-08-19T15:12:48.593Z,31.10
2022-08-19T15:15:18.399Z,31.00
2022-08-19T15:17:47.436Z,31.00
2022-08-19T15:20:18.779Z,31.00
2022-08-19T15:22:46.024Z,31.00
2022-08-19T15:25:16.574Z,31.00
2022-08-19T15:27:44.437Z,31.00
2022-08-19T15:30:12.543Z,31.00
2022-08-19T15:32:40.106Z,30.90
2022-08-19T15:35:08.661Z,30.90
2022-08-19T15:37:37.692Z,30.90
2022-08-19T15:40:09.721Z,30.80
2022-08-19T15:42:38.392Z,30.80
2022-08-19T15:45:10.147Z,30.80
2022-08-19T15:47:38.948Z,30.70
2022-08-19T15:50:18.971Z,30.70
2022-08-19T15:52:49.282Z,30.60
2022-08-19T15:55:32.495Z,30.60
2022-08-19T15:58:28.780Z,30.60
2022-08-19T16:01:21.338Z,30.60
2022-08-19T16:04:14.783Z,30.60
2022-08-19T16:06:50.538Z,30.60
2022-08-19T16:09:26.507Z,30.60
2022-08-19T16:12:03.110Z,30.50
2022-08-19T16:14:33.381Z,30.50
2022-08-19T16:17:00.789Z,30.50
2022-08-19T16:19:28.185Z,30.50
2022-08-19T16:21:57.065Z,30.50
2022-08-19T16:24:27.899Z,30.50
2022-08-19T16:26:56.286Z,30.50
2022-08-19T16:29:34.898Z,30.50
2022-08-19T16:32:12.790Z,30.50
2022-08-19T16:34:41.436Z,30.50
2022-08-19T16:37:10.171Z,30.50
2022-08-19T16:39:37.639Z,30.40
2022-08-19T16:42:07.673Z,30.30
2022-08-19T16:44:36.443Z,30.30
2022-08-19T16:47:04.062Z,30.20
2022-08-19T16:49:54.290Z,30.20
2022-08-19T16:52:19.593Z,30.10
2022-08-19T16:54:47.781Z,30.10
2022-08-19T16:57:15.107Z,30.00
2022-08-19T16:59:48.477Z,30.00
2022-08-19T17:02:22.457Z,29.90
2022-08-19T17:04:57.439Z,29.80
2022-08-19T17:07:33.500Z,29.80
2022-08-19T17:10:02.176Z,29.80
2022-08-19T17:12:32.421Z,29.70
2022-08-19T17:15:05.206Z,29.70
2022-08-19T17:17:32.517Z,29.60
2022-08-19T17:20:01.320Z,29.60
2022-08-19T17:22:28.823Z,29.60
2022-08-19T17:24:58.219Z,29.50
2022-08-19T17:27:32.286Z,29.40
2022-08-19T17:30:02.583Z,29.40
2022-08-19T17:32:31.066Z,29.30
2022-08-19T17:34:58.778Z,29.30
2022-08-19T17:37:26.165Z,29.20
2022-08-19T17:39:53.352Z,29.20
2022-08-19T17:42:20.543Z,29.10
2022-08-19T17:44:50.429Z,29.10
2022-08-19T17:47:19.447Z,29.00
2022-08-19T17:49:47.457Z,29.00
2022-08-19T17:52:14.924Z,28.90
2022-08-19T17:54:42.000Z,28.90
2022-08-19T17:57:09.617Z,28.90
2022-08-19T17:59:40.139Z,28.80
2022-08-19T18:02:10.064Z,28.80
2022-08-19T18:04:38.389Z,28.80
2022-08-19T18:07:06.365Z,28.70
2022-08-19T18:09:41.717Z,28.80
2022-08-19T18:12:12.771Z,28.70
2022-08-19T18:14:40.562Z,28.70
2022-08-19T18:17:11.573Z,28.70
2022-08-19T18:19:42.712Z,28.60
2022-08-19T18:22:23.336Z,28.60
2022-08-19T18:24:50.732Z,28.50
2022-08-19T18:27:17.861Z,28.50
2022-08-19T18:29:45.552Z,28.50
2022-08-19T18:32:13.402Z,28.40
2022-08-19T18:34:41.626Z,28.40
2022-08-19T18:37:08.959Z,28.40
2022-08-19T18:39:55.226Z,28.30
2022-08-19T18:42:41.316Z,28.30
2022-08-19T18:45:28.725Z,28.20
2022-08-19T18:48:25.770Z,28.20
2022-08-19T18:50:57.388Z,28.10
2022-08-19T18:53:26.333Z,28.10
2022-08-19T18:55:55.186Z,28.10
2022-08-19T18:58:34.362Z,28.10
2022-08-19T19:01:26.221Z,28.00
2022-08-19T19:03:55.520Z,28.00
2022-08-19T19:06:25.871Z,27.90
2022-08-19T19:08:54.986Z,27.90
2022-08-19T19:11:28.302Z,27.80
2022-08-19T19:13:55.420Z,27.80
2022-08-19T19:16:24.645Z,27.80
2022-08-19T19:18:52.868Z,27.70
2022-08-19T19:21:24.605Z,27.80
2022-08-19T19:23:55.682Z,27.70
2022-08-19T19:26:23.899Z,27.70
2022-08-19T19:28:51.464Z,27.70
2022-08-19T19:31:23.194Z,27.60
2022-08-19T19:33:50.721Z,27.60
2022-08-19T19:36:18.832Z,27.60
2022-08-19T19:38:48.822Z,27.60
2022-08-19T19:41:21.270Z,27.50
2022-08-19T19:43:59.904Z,27.50
2022-08-19T19:46:36.603Z,27.40
2022-08-19T19:49:04.775Z,27.40
2022-08-19T19:51:37.759Z,27.30
2022-08-19T19:54:07.280Z,27.30
2022-08-19T19:56:34.862Z,27.20
2022-08-19T19:59:03.812Z,27.20
2022-08-19T20:01:31.192Z,27.10
2022-08-19T20:04:01.431Z,27.10
2022-08-19T20:06:29.201Z,27.10
2022-08-19T20:09:10.278Z,27.10
2022-08-19T20:11:43.898Z,27.00
2022-08-19T20:14:18.050Z,27.00
2022-08-19T20:16:47.053Z,26.90
2022-08-19T20:19:18.113Z,26.90
2022-08-19T20:21:50.781Z,26.80
2022-08-19T20:24:26.245Z,26.80
2022-08-19T20:26:53.711Z,26.70
2022-08-19T20:29:37.796Z,26.70
2022-08-19T20:32:05.743Z,26.70
2022-08-19T20:34:33.821Z,26.60
2022-08-19T20:37:01.511Z,26.60
2022-08-19T20:39:28.641Z,26.60
2022-08-19T20:41:56.586Z,26.60
2022-08-19T20:44:25.671Z,26.60
2022-08-19T20:46:55.378Z,26.60
2022-08-19T20:49:27.033Z,26.60
2022-08-19T20:51:56.260Z,26.60
2022-08-19T20:54:24.106Z,26.60
2022-08-19T20:56:51.809Z,26.60
2022-08-19T20:59:20.504Z,26.60
2022-08-19T21:01:48.144Z,26.60
2022-08-19T21:04:15.776Z,26.60
2022-08-19T21:06:45.216Z,26.50
2022-08-19T21:09:13.764Z,26.50
2022-08-19T21:11:41.295Z,26.50
2022-08-19T21:14:08.575Z,26.50
2022-08-19T21:16:35.650Z,26.50
2022-08-19T21:19:03.662Z,26.40
2022-08-19T21:21:31.192Z,26.40
2022-08-19T21:23:58.217Z,26.40
2022-08-19T21:26:27.932Z,26.40
2022-08-19T21:28:54.988Z,26.40
2022-08-19T21:31:22.229Z,26.40
2022-08-19T21:33:49.519Z,26.40
2022-08-19T21:36:17.288Z,26.30
2022-08-19T21:38:44.376Z,26.20
2022-08-19T21:41:11.874Z,26.20
2022-08-19T21:43:39.846Z,26.10
2022-08-19T21:46:07.913Z,26.10
2022-08-19T21:48:35.660Z,26.00
2022-08-19T21:51:02.983Z,26.00
2022-08-19T21:53:34.071Z,25.90
2022-08-19T21:56:04.180Z,25.90
2022-08-19T21:58:31.323Z,25.80
2022-08-19T22:01:05.896Z,25.80
2022-08-19T22:03:34.812Z,25.80
2022-08-19T22:06:01.943Z,25.70
2022-08-19T22:08:29.786Z,25.70
2022-08-19T22:10:59.216Z,25.70
2022-08-19T22:13:27.011Z,25.60
2022-08-19T22:15:55.271Z,25.50
2022-08-19T22:18:22.615Z,25.30
2022-08-19T22:20:50.231Z,25.10
2022-08-19T22:23:17.262Z,25.10
2022-08-19T22:25:46.335Z,25.00
2022-08-19T22:28:19.175Z,24.90
2022-08-19T22:30:56.234Z,24.80
2022-08-19T22:33:25.651Z,24.50
2022-08-19T22:35:53.465Z,24.30
2022-08-19T22:38:21.806Z,24.10
2022-08-19T22:40:51.357Z,24.10
2022-08-19T22:43:24.752Z,23.90
2022-08-19T22:45:54.697Z,23.80
2022-08-19T22:48:24.821Z,23.70
2022-08-19T22:51:11.430Z,23.60
2022-08-19T22:53:41.817Z,23.60
2022-08-19T22:56:15.066Z,23.40
2022-08-19T22:58:43.543Z,23.40
2022-08-19T23:01:13.012Z,23.20
2022-08-19T23:03:52.546Z,23.20
2022-08-19T23:06:19.789Z,23.10
2022-08-19T23:08:48.343Z,22.90
2022-08-19T23:11:15.381Z,22.60
2022-08-19T23:13:42.738Z,22.40
2022-08-19T23:16:09.820Z,22.20
2022-08-19T23:18:36.865Z,22.00
2022-08-19T23:21:09.399Z,22.00
2022-08-19T23:23:37.824Z,21.90
2022-08-19T23:26:06.698Z,21.90
2022-08-19T23:28:57.598Z,21.70
2022-08-19T23:31:26.714Z,21.50
2022-08-19T23:33:53.730Z,21.30
2022-08-19T23:36:22.507Z,21.20
2022-08-19T23:38:52.294Z,21.20
2022-08-19T23:41:22.072Z,21.20
2022-08-19T23:43:50.826Z,21.20
2022-08-19T23:46:27.625Z,21.20
2022-08-19T23:48:56.621Z,21.10
2022-08-19T23:51:24.781Z,21.10
2022-08-19T23:53:51.892Z,21.10
2022-08-19T23:56:18.928Z,21.00
2022-08-19T23:58:49.184Z,21.00
